createdAt,value
2023-03-04T00:00:45.649Z,101125.22
2023-03-04T00:05:47.291Z,101122.06
2023-03-04T00:10:48.658Z,101135.66
2023-03-04T00:15:50.046Z,101123.88
2023-03-04T00:20:51.450Z,101131.31
2023-03-04T00:25:52.900Z,101126.22
2023-03-04T00:30:54.254Z,101133.66
2023-03-04T00:35:55.926Z,101127.81
2023-03-04T00:40:57.352Z,101131.41
2023-03-04T00:45:59.775Z,101137.91
2023-03-04T00:51:01.130Z,101133.56
2023-03-04T00:56:02.501Z,101129.44
2023-03-04T01:01:03.984Z,101126.53
2023-03-04T01:06:05.643Z,101120.81
2023-03-04T01:11:07.446Z,101116.97
2023-03-04T01:16:10.218Z,101114.13
2023-03-04T01:21:11.631Z,101112.53
2023-03-04T01:26:13.022Z,101107.09
2023-03-04T01:31:14.475Z,101095.63
2023-03-04T01:36:15.888Z,101089.38
2023-03-04T01:41:22.406Z,101084.91
2023-03-04T01:46:24.289Z,101068.66
2023-03-04T01:51:25.794Z,101063.53
2023-03-04T01:56:35.552Z,101054.88
2023-03-04T02:01:38.758Z,101048.09
2023-03-04T02:06:41.236Z,101042.25
2023-03-04T02:11:44.425Z,101040.47
2023-03-04T02:16:46.894Z,101039.78
2023-03-04T02:21:48.330Z,101029.81
2023-03-04T02:26:49.736Z,101028.25
2023-03-04T02:31:53.404Z,101028.28
2023-03-04T02:36:55.897Z,101030.38
2023-03-04T02:41:58.145Z,101019.13
2023-03-04T02:47:00.459Z,101012.81
2023-03-04T02:52:03.604Z,101015.25
2023-03-04T02:57:07.932Z,101010.41
2023-03-04T03:02:10.250Z,101008.97
2023-03-04T03:07:11.692Z,101013.69
2023-03-04T03:12:13.095Z,101002.06
2023-03-04T03:17:14.468Z,100997.81
2023-03-04T03:22:15.877Z,101004.13
2023-03-04T03:27:17.293Z,100999.75
2023-03-04T03:32:18.723Z,101001.47
2023-03-04T03:37:20.275Z,100999.16
2023-03-04T03:42:21.632Z,100998.06
2023-03-04T03:47:23.137Z,100994.78
2023-03-04T03:52:24.536Z,100999.13
2023-03-04T03:57:25.938Z,101002.03
2023-03-04T04:02:27.587Z,100992.34
2023-03-04T04:07:29.075Z,100991.00
2023-03-04T04:12:30.690Z,100985.28
2023-03-04T04:17:32.113Z,100992.28
2023-03-04T04:22:34.038Z,100988.78
2023-03-04T04:27:35.477Z,100987.22
2023-03-04T04:32:37.032Z,100987.22
2023-03-04T04:37:38.392Z,100988.22
2023-03-04T04:42:39.739Z,100983.50
2023-03-04T04:47:41.122Z,100993.81
2023-03-04T04:52:42.605Z,100974.53
2023-03-04T04:57:44.064Z,100973.09
2023-03-04T05:02:45.550Z,100973.72
2023-03-04T05:07:46.907Z,100974.09
2023-03-04T05:12:49.706Z,100976.59
2023-03-04T05:17:51.119Z,100972.88
2023-03-04T05:22:52.523Z,100974.19
2023-03-04T05:27:53.885Z,100979.00
2023-03-04T05:32:55.230Z,100979.59
2023-03-04T05:37:56.579Z,100979.00
2023-03-04T05:42:58.082Z,100978.97
2023-03-04T05:48:00.125Z,100972.28
2023-03-04T05:53:01.541Z,100976.66
2023-03-04T05:58:02.976Z,100980.66
2023-03-04T06:03:04.443Z,100975.31
2023-03-04T06:08:05.912Z,100989.19
2023-03-04T06:13:08.017Z,100989.78
2023-03-04T06:18:09.465Z,100991.69
2023-03-04T06:23:10.892Z,101002.03
2023-03-04T06:28:12.303Z,101006.03
2023-03-04T06:33:13.701Z,101007.56
2023-03-04T06:38:15.341Z,101014.81
2023-03-04T06:43:16.870Z,101023.63
2023-03-04T06:48:18.211Z,101021.09
2023-03-04T06:53:19.601Z,101031.25
2023-03-04T06:58:20.953Z,101032.47
2023-03-04T07:03:22.574Z,101029.22
2023-03-04T07:08:23.921Z,101033.59
2023-03-04T07:13:25.323Z,101027.63
2023-03-04T07:18:26.857Z,101037.25
2023-03-04T07:23:28.331Z,101037.19
2023-03-04T07:28:29.846Z,101034.69
2023-03-04T07:33:31.192Z,101049.06
2023-03-04T07:38:32.916Z,101049.72
2023-03-04T07:43:34.411Z,101049.97
2023-03-04T07:48:37.112Z,101047.75
2023-03-04T07:53:39.977Z,101043.41
2023-03-04T07:58:41.934Z,101046.69
2023-03-04T08:03:43.617Z,101046.81
2023-03-04T08:08:46.013Z,101041.78
2023-03-04T08:13:48.723Z,101053.06
2023-03-04T08:18:52.692Z,101053.06
2023-03-04T08:23:55.053Z,101052.34
2023-03-04T08:28:57.553Z,101061.16
2023-03-04T08:33:59.012Z,101070.63
2023-03-04T08:39:00.462Z,101061.78
2023-03-04T08:44:02.003Z,101070.00
2023-03-04T08:49:04.210Z,101064.88
2023-03-04T08:54:05.818Z,101061.59
2023-03-04T08:59:07.188Z,101070.06
2023-03-04T09:04:08.865Z,101067.94
2023-03-04T09:09:10.308Z,101057.59
2023-03-04T09:14:11.852Z,101065.19
2023-03-04T09:19:13.242Z,101060.63
2023-03-04T09:24:14.724Z,101056.16
2023-03-04T09:29:16.077Z,101063.72
2023-03-04T09:34:17.484Z,101061.09
2023-03-04T09:39:18.929Z,101062.53
2023-03-04T09:44:30.680Z,101055.94
2023-03-04T09:49:32.363Z,101059.31
2023-03-04T09:54:45.111Z,101056.34
2023-03-04T10:00:07.830Z,101056.06
2023-03-04T10:05:16.498Z,101052.25
2023-03-04T10:10:40.179Z,101051.28
2023-03-04T10:15:46.450Z,101049.03
2023-03-04T10:21:06.664Z,101038.28
2023-03-04T10:26:13.752Z,101039.16
2023-03-04T10:31:29.030Z,101041.66
2023-03-04T10:36:30.423Z,101031.22
2023-03-04T10:41:32.330Z,101023.44
2023-03-04T10:46:38.339Z,101020.44
2023-03-04T10:52:03.582Z,101022.22
2023-03-04T10:57:13.702Z,101016.00
2023-03-04T11:02:15.056Z,101012.03
2023-03-04T11:07:16.476Z,101004.56
2023-03-04T11:12:22.132Z,101009.88
2023-03-04T11:17:48.523Z,101003.84
2023-03-04T11:22:51.802Z,100994.19
2023-03-04T11:28:00.732Z,100990.03
2023-03-04T11:33:26.986Z,100987.09
2023-03-04T11:38:39.307Z,100981.44
2023-03-04T11:43:46.603Z,100985.94
2023-03-04T11:49:07.057Z,100985.09
2023-03-04T11:54:32.361Z,100978.00
2023-03-04T11:59:58.614Z,100973.19
2023-03-04T12:05:17.431Z,100962.63
2023-03-04T12:10:52.694Z,100951.53
2023-03-04T12:16:00.331Z,100946.09
2023-03-04T12:21:01.612Z,100938.47
2023-03-04T12:26:08.566Z,100933.19
2023-03-04T12:31:33.203Z,100927.75
2023-03-04T12:36:37.282Z,100921.25
2023-03-04T12:42:29.441Z,100912.66
2023-03-04T12:47:51.158Z,100892.81
2023-03-04T12:53:14.488Z,100891.50
2023-03-04T12:58:19.900Z,100887.06
2023-03-04T13:03:24.473Z,100866.69
2023-03-04T13:08:33.343Z,100876.06
2023-03-04T13:13:37.351Z,100867.47
2023-03-04T13:18:39.489Z,100857.38
2023-03-04T13:23:42.127Z,100855.44
2023-03-04T13:28:43.831Z,100849.47
2023-03-04T13:33:49.494Z,100848.06
2023-03-04T13:39:21.881Z,100842.38
2023-03-04T13:44:44.907Z,100832.69
2023-03-04T13:55:33.342Z,100823.84
2023-03-04T14:06:18.159Z,100824.16
2023-03-04T14:11:38.466Z,100811.81
2023-03-04T14:16:56.084Z,100817.03
2023-03-04T14:21:59.448Z,100807.72
2023-03-04T14:27:11.060Z,100807.38
2023-03-04T14:32:12.849Z,100801.22
2023-03-04T14:37:27.050Z,100795.28
2023-03-04T14:42:39.215Z,100790.59
2023-03-04T14:47:45.181Z,100783.28
2023-03-04T14:52:51.573Z,100780.34
2023-03-04T14:58:05.732Z,100778.06
2023-03-04T15:03:21.743Z,100778.75
2023-03-04T15:08:32.732Z,100773.03
2023-03-04T15:13:50.405Z,100774.44
2023-03-04T15:19:26.293Z,100759.91
2023-03-04T15:24:27.648Z,100765.81
2023-03-04T15:29:29.104Z,100765.72
2023-03-04T15:34:31.380Z,100758.00
2023-03-04T15:39:32.843Z,100764.44
2023-03-04T15:44:34.234Z,100757.03
2023-03-04T15:49:35.611Z,100765.66
2023-03-04T15:54:36.991Z,100751.34
2023-03-04T15:59:38.418Z,100759.03
2023-03-04T16:04:39.798Z,100751.75
2023-03-04T16:09:41.210Z,100758.44
2023-03-04T16:14:44.270Z,100769.63
2023-03-04T16:19:46.701Z,100755.06
2023-03-04T16:24:48.105Z,100751.28
2023-03-04T16:29:49.493Z,100739.38
2023-03-04T16:34:50.865Z,100747.22
2023-03-04T16:39:52.444Z,100755.75
2023-03-04T16:44:55.206Z,100746.84
2023-03-04T16:49:57.591Z,100744.59
2023-03-04T16:55:00.154Z,100748.50
2023-03-04T17:00:01.666Z,100749.19
2023-03-04T17:05:04.202Z,100757.53
2023-03-04T17:10:06.037Z,100749.13
2023-03-04T17:15:09.927Z,100757.31
2023-03-04T17:20:14.347Z,100752.03
2023-03-04T17:25:16.021Z,100760.28
2023-03-04T17:30:17.641Z,100767.34
2023-03-04T17:35:19.328Z,100771.56
2023-03-04T17:40:20.874Z,100769.84
2023-03-04T17:45:22.294Z,100779.13
2023-03-04T17:50:23.692Z,100778.50
2023-03-04T17:55:26.339Z,100777.75
2023-03-04T18:00:27.817Z,100772.25
2023-03-04T18:05:29.234Z,100764.28
2023-03-04T18:10:30.611Z,100756.25
2023-03-04T18:15:32.147Z,100755.56
2023-03-04T18:20:33.646Z,100759.38
2023-03-04T18:25:35.095Z,100756.75
2023-03-04T18:30:38.205Z,100755.59
2023-03-04T18:35:39.651Z,100760.56
2023-03-04T18:40:42.169Z,100755.59
2023-03-04T18:45:43.701Z,100751.44
2023-03-04T18:50:45.355Z,100749.31
2023-03-04T18:55:46.829Z,100747.31
2023-03-04T19:00:48.344Z,100742.81
2023-03-04T19:05:49.976Z,100746.84
2023-03-04T19:10:51.441Z,100752.13
2023-03-04T19:15:54.441Z,100752.00
2023-03-04T19:20:59.562Z,100751.66
2023-03-04T19:26:01.080Z,100760.47
2023-03-04T19:31:07.381Z,100754.41
2023-03-04T19:36:09.566Z,100745.75
2023-03-04T19:41:13.981Z,100752.72
2023-03-04T19:46:15.981Z,100756.81
2023-03-04T19:51:19.831Z,100748.66
2023-03-04T19:56:23.925Z,100750.59
2023-03-04T20:01:30.892Z,100748.75
2023-03-04T20:06:35.954Z,100750.34
2023-03-04T20:11:44.222Z,100744.28
2023-03-04T20:16:48.722Z,100745.31
2023-03-04T20:21:50.141Z,100737.47
2023-03-04T20:26:52.129Z,100736.44
2023-03-04T20:31:53.533Z,100741.53
2023-03-04T20:36:54.940Z,100746.66
2023-03-04T20:41:59.429Z,100740.22
2023-03-04T20:47:01.620Z,100745.84
2023-03-04T20:52:06.287Z,100747.38
2023-03-04T20:57:08.605Z,100750.53
2023-03-04T21:02:14.900Z,100746.81
2023-03-04T21:07:16.516Z,100750.03
2023-03-04T21:12:17.977Z,100750.19
2023-03-04T21:17:19.371Z,100739.25
2023-03-04T21:22:21.022Z,100730.91
2023-03-04T21:27:22.521Z,100747.25
2023-03-04T21:32:26.450Z,100732.91
2023-03-04T21:37:27.936Z,100731.59
2023-03-04T21:42:29.434Z,100728.91
2023-03-04T21:47:30.809Z,100722.25
2023-03-04T21:52:32.179Z,100723.28
2023-03-04T21:57:33.561Z,100721.84
2023-03-04T22:02:34.972Z,100718.22
2023-03-04T22:07:36.407Z,100714.22
2023-03-04T22:12:37.770Z,100708.25
2023-03-04T22:17:39.227Z,100702.28
2023-03-04T22:22:40.648Z,100704.22
2023-03-04T22:27:42.023Z,100711.81
2023-03-04T22:32:48.260Z,100703.09
2023-03-04T22:37:49.669Z,100712.94
2023-03-04T22:42:51.117Z,100712.56
2023-03-04T22:47:52.849Z,100706.91
2023-03-04T22:52:54.369Z,100705.84
2023-03-04T22:57:55.735Z,100698.31
2023-03-04T23:02:57.807Z,100704.16
2023-03-04T23:07:59.641Z,100705.31
2023-03-04T23:13:01.024Z,100708.13
2023-03-04T23:18:02.444Z,100700.56
2023-03-04T23:23:03.832Z,100698.78
2023-03-04T23:28:05.362Z,100693.00
2023-03-04T23:33:06.754Z,100706.66
2023-03-04T23:38:08.122Z,100707.75
2023-03-04T23:43:09.544Z,100693.97
2023-03-04T23:48:10.906Z,100699.59
2023-03-04T23:53:12.301Z,100697.09
2023-03-04T23:58:13.693Z,100687.69
